sensor_id;sensor_type;location;lat;lon;timestamp;P1;durP1;ratioP1;P2;durP2;ratioP2
9224;SDS011;4647;48.072;11.616;2023-09-08T00:01:11;8.00;;;7.30;;
9224;SDS011;4647;48.072;11.616;2023-09-08T00:03:39;8.43;;;7.73;;
9224;SDS011;4647;48.072;11.616;2023-09-08T00:06:08;11.87;;;8.17;;
9224;SDS011;4647;48.072;11.616;2023-09-08T00:08:36;9.37;;;8.50;;
9224;SDS011;4647;48.072;11.616;2023-09-08T00:11:05;9.30;;;8.37;;
9224;SDS011;4647;48.072;11.616;2023-09-08T00:13:36;9.87;;;8.87;;
9224;SDS011;4647;48.072;11.616;2023-09-08T00:16:05;9.27;;;8.33;;
9224;SDS011;4647;48.072;11.616;2023-09-08T00:18:35;10.00;;;9.10;;
9224;SDS011;4647;48.072;11.616;2023-09-08T00:21:03;10.10;;;8.23;;
9224;SDS011;4647;48.072;11.616;2023-09-08T00:23:32;9.87;;;9.07;;
9224;SDS011;4647;48.072;11.616;2023-09-08T00:26:00;9.10;;;8.20;;
9224;SDS011;4647;48.072;11.616;2023-09-08T00:28:28;9.97;;;8.93;;
9224;SDS011;4647;48.072;11.616;2023-09-08T00:30:59;11.20;;;8.70;;
9224;SDS011;4647;48.072;11.616;2023-09-08T00:33:30;9.70;;;8.80;;
9224;SDS011;4647;48.072;11.616;2023-09-08T00:35:58;9.37;;;8.20;;
9224;SDS011;4647;48.072;11.616;2023-09-08T00:38:27;10.43;;;9.43;;
9224;SDS011;4647;48.072;11.616;2023-09-08T00:40:55;9.30;;;8.50;;
9224;SDS011;4647;48.072;11.616;2023-09-08T00:43:25;9.50;;;8.70;;
9224;SDS011;4647;48.072;11.616;2023-09-08T00:45:53;8.90;;;8.10;;
9224;SDS011;4647;48.072;11.616;2023-09-08T00:48:26;10.47;;;9.37;;
9224;SDS011;4647;48.072;11.616;2023-09-08T00:50:55;10.70;;;9.70;;
9224;SDS011;4647;48.072;11.616;2023-09-08T00:53:24;9.70;;;8.70;;
9224;SDS011;4647;48.072;11.616;2023-09-08T00:55:53;11.70;;;9.43;;
9224;SDS011;4647;48.072;11.616;2023-09-08T00:58:23;9.20;;;8.40;;
9224;SDS011;4647;48.072;11.616;2023-09-08T01:00:52;9.50;;;8.53;;
9224;SDS011;4647;48.072;11.616;2023-09-08T01:03:22;10.07;;;9.27;;
9224;SDS011;4647;48.072;11.616;2023-09-08T01:05:54;10.83;;;9.40;;
9224;SDS011;4647;48.072;11.616;2023-09-08T01:08:23;9.20;;;8.40;;
9224;SDS011;4647;48.072;11.616;2023-09-08T01:10:51;9.60;;;8.70;;
9224;SDS011;4647;48.072;11.616;2023-09-08T01:13:20;11.30;;;9.23;;
9224;SDS011;4647;48.072;11.616;2023-09-08T01:15:49;10.30;;;9.40;;
9224;SDS011;4647;48.072;11.616;2023-09-08T01:18:17;13.20;;;10.20;;
9224;SDS011;4647;48.072;11.616;2023-09-08T01:20:48;11.33;;;9.93;;
9224;SDS011;4647;48.072;11.616;2023-09-08T01:23:37;10.53;;;9.57;;
9224;SDS011;4647;48.072;11.616;2023-09-08T01:26:21;10.43;;;9.53;;
9224;SDS011;4647;48.072;11.616;2023-09-08T01:28:54;9.27;;;8.43;;
9224;SDS011;4647;48.072;11.616;2023-09-08T01:31:24;10.43;;;9.43;;
9224;SDS011;4647;48.072;11.616;2023-09-08T01:33:52;10.03;;;9.07;;
9224;SDS011;4647;48.072;11.616;2023-09-08T01:36:21;10.03;;;9.03;;
9224;SDS011;4647;48.072;11.616;2023-09-08T01:38:50;9.77;;;8.97;;
9224;SDS011;4647;48.072;11.616;2023-09-08T01:41:21;10.13;;;9.17;;
9224;SDS011;4647;48.072;11.616;2023-09-08T01:43:49;11.00;;;10.00;;
9224;SDS011;4647;48.072;11.616;2023-09-08T01:46:18;9.97;;;9.07;;
9224;SDS011;4647;48.072;11.616;2023-09-08T01:48:46;9.53;;;8.30;;
9224;SDS011;4647;48.072;11.616;2023-09-08T01:51:14;10.87;;;9.07;;
9224;SDS011;4647;48.072;11.616;2023-09-08T01:53:43;9.30;;;8.53;;
9224;SDS011;4647;48.072;11.616;2023-09-08T01:56:11;11.20;;;10.10;;
9224;SDS011;4647;48.072;11.616;2023-09-08T01:58:42;9.63;;;8.53;;
9224;SDS011;4647;48.072;11.616;2023-09-08T02:01:11;9.70;;;8.73;;
9224;SDS011;4647;48.072;11.616;2023-09-08T02:03:39;10.80;;;9.90;;
9224;SDS011;4647;48.072;11.616;2023-09-08T02:06:07;9.73;;;8.47;;
9224;SDS011;4647;48.072;11.616;2023-09-08T02:08:36;10.17;;;8.43;;
9224;SDS011;4647;48.072;11.616;2023-09-08T02:11:07;10.23;;;8.63;;
9224;SDS011;4647;48.072;11.616;2023-09-08T02:13:36;8.97;;;8.17;;
9224;SDS011;4647;48.072;11.616;2023-09-08T02:16:07;9.13;;;8.33;;
9224;SDS011;4647;48.072;11.616;2023-09-08T02:18:40;10.87;;;8.37;;
9224;SDS011;4647;48.072;11.616;2023-09-08T02:21:09;9.80;;;8.90;;
9224;SDS011;4647;48.072;11.616;2023-09-08T02:23:37;9.20;;;8.40;;
9224;SDS011;4647;48.072;11.616;2023-09-08T02:26:06;8.97;;;8.17;;
9224;SDS011;4647;48.072;11.616;2023-09-08T02:28:34;9.47;;;8.57;;
9224;SDS011;4647;48.072;11.616;2023-09-08T02:31:02;10.13;;;9.20;;
9224;SDS011;4647;48.072;11.616;2023-09-08T02:33:33;10.20;;;9.17;;
9224;SDS011;4647;48.072;11.616;2023-09-08T02:36:03;10.33;;;9.30;;
9224;SDS011;4647;48.072;11.616;2023-09-08T02:38:32;10.20;;;9.17;;
9224;SDS011;4647;48.072;11.616;2023-09-08T02:41:00;10.10;;;9.20;;
9224;SDS011;4647;48.072;11.616;2023-09-08T02:43:29;10.50;;;9.70;;
9224;SDS011;4647;48.072;11.616;2023-09-08T02:45:57;10.43;;;9.40;;
9224;SDS011;4647;48.072;11.616;2023-09-08T02:48:26;10.73;;;9.63;;
9224;SDS011;4647;48.072;11.616;2023-09-08T02:50:57;9.53;;;8.67;;
9224;SDS011;4647;48.072;11.616;2023-09-08T02:53:25;9.13;;;8.23;;
9224;SDS011;4647;48.072;11.616;2023-09-08T02:55:54;9.67;;;8.67;;
9224;SDS011;4647;48.072;11.616;2023-09-08T02:58:23;9.13;;;8.20;;
9224;SDS011;4647;48.072;11.616;2023-09-08T03:00:52;9.60;;;8.77;;
9224;SDS011;4647;48.072;11.616;2023-09-08T03:03:22;10.40;;;9.50;;
9224;SDS011;4647;48.072;11.616;2023-09-08T03:05:53;9.53;;;8.63;;
9224;SDS011;4647;48.072;11.616;2023-09-08T03:08:28;10.03;;;9.10;;
9224;SDS011;4647;48.072;11.616;2023-09-08T03:10:56;9.80;;;8.90;;
9224;SDS011;4647;48.072;11.616;2023-09-08T03:13:25;10.43;;;9.33;;
9224;SDS011;4647;48.072;11.616;2023-09-08T03:15:54;10.87;;;9.77;;
9224;SDS011;4647;48.072;11.616;2023-09-08T03:18:44;9.43;;;8.63;;
9224;SDS011;4647;48.072;11.616;2023-09-08T03:21:13;10.30;;;8.80;;
9224;SDS011;4647;48.072;11.616;2023-09-08T03:23:45;10.23;;;9.23;;
9224;SDS011;4647;48.072;11.616;2023-09-08T03:26:13;9.27;;;8.30;;
9224;SDS011;4647;48.072;11.616;2023-09-08T03:28:42;10.80;;;9.90;;
9224;SDS011;4647;48.072;11.616;2023-09-08T03:31:10;9.40;;;8.27;;
9224;SDS011;4647;48.072;11.616;2023-09-08T03:33:39;8.80;;;7.93;;
9224;SDS011;4647;48.072;11.616;2023-09-08T03:36:08;8.97;;;8.17;;
9224;SDS011;4647;48.072;11.616;2023-09-08T03:38:36;11.00;;;9.17;;
9224;SDS011;4647;48.072;11.616;2023-09-08T03:41:08;9.23;;;8.43;;
9224;SDS011;4647;48.072;11.616;2023-09-08T03:43:37;9.27;;;8.47;;
9224;SDS011;4647;48.072;11.616;2023-09-08T03:46:05;10.37;;;9.37;;
9224;SDS011;4647;48.072;11.616;2023-09-08T03:48:34;9.87;;;8.90;;
9224;SDS011;4647;48.072;11.616;2023-09-08T03:51:02;9.13;;;8.20;;
9224;SDS011;4647;48.072;11.616;2023-09-08T03:53:31;9.57;;;8.67;;
9224;SDS011;4647;48.072;11.616;2023-09-08T03:55:59;9.20;;;8.40;;
9224;SDS011;4647;48.072;11.616;2023-09-08T03:58:30;8.63;;;7.93;;
9224;SDS011;4647;48.072;11.616;2023-09-08T04:00:59;9.57;;;8.67;;
9224;SDS011;4647;48.072;11.616;2023-09-08T04:03:27;9.60;;;8.80;;
9224;SDS011;4647;48.072;11.616;2023-09-08T04:05:55;9.20;;;8.23;;
9224;SDS011;4647;48.072;11.616;2023-09-08T04:08:24;11.67;;;8.20;;
9224;SDS011;4647;48.072;11.616;2023-09-08T04:10:52;9.60;;;8.37;;
9224;SDS011;4647;48.072;11.616;2023-09-08T04:13:21;9.07;;;8.37;;
9224;SDS011;4647;48.072;11.616;2023-09-08T04:15:52;8.83;;;7.93;;
9224;SDS011;4647;48.072;11.616;2023-09-08T04:18:20;10.73;;;8.17;;
9224;SDS011;4647;48.072;11.616;2023-09-08T04:20:49;10.10;;;8.10;;
9224;SDS011;4647;48.072;11.616;2023-09-08T04:23:18;9.30;;;8.40;;
9224;SDS011;4647;48.072;11.616;2023-09-08T04:25:46;9.00;;;8.20;;
9224;SDS011;4647;48.072;11.616;2023-09-08T04:28:14;9.73;;;8.73;;
9224;SDS011;4647;48.072;11.616;2023-09-08T04:30:43;9.00;;;8.13;;
9224;SDS011;4647;48.072;11.616;2023-09-08T04:33:14;9.87;;;9.07;;
9224;SDS011;4647;48.072;11.616;2023-09-08T04:35:43;8.87;;;8.07;;
9224;SDS011;4647;48.072;11.616;2023-09-08T04:38:11;8.90;;;7.97;;
9224;SDS011;4647;48.072;11.616;2023-09-08T04:40:40;9.80;;;8.80;;
9224;SDS011;4647;48.072;11.616;2023-09-08T04:43:09;10.27;;;9.30;;
9224;SDS011;4647;48.072;11.616;2023-09-08T04:45:37;9.97;;;9.07;;
9224;SDS011;4647;48.072;11.616;2023-09-08T04:48:06;9.53;;;8.50;;
9224;SDS011;4647;48.072;11.616;2023-09-08T04:50:37;9.80;;;9.10;;
9224;SDS011;4647;48.072;11.616;2023-09-08T04:53:05;9.20;;;8.40;;
9224;SDS011;4647;48.072;11.616;2023-09-08T04:55:34;9.67;;;8.77;;
9224;SDS011;4647;48.072;11.616;2023-09-08T04:58:03;9.67;;;8.77;;
9224;SDS011;4647;48.072;11.616;2023-09-08T05:00:31;8.53;;;7.83;;
9224;SDS011;4647;48.072;11.616;2023-09-08T05:03:00;9.10;;;8.20;;
9224;SDS011;4647;48.072;11.616;2023-09-08T05:05:28;9.47;;;8.57;;
9224;SDS011;4647;48.072;11.616;2023-09-08T05:07:59;10.53;;;8.77;;
9224;SDS011;4647;48.072;11.616;2023-09-08T05:10:28;9.83;;;8.33;;
9224;SDS011;4647;48.072;11.616;2023-09-08T05:12:56;9.53;;;8.47;;
9224;SDS011;4647;48.072;11.616;2023-09-08T05:15:25;9.80;;;8.90;;
9224;SDS011;4647;48.072;11.616;2023-09-08T05:17:53;9.80;;;8.80;;
9224;SDS011;4647;48.072;11.616;2023-09-08T05:20:22;12.03;;;8.47;;
9224;SDS011;4647;48.072;11.616;2023-09-08T05:22:50;9.03;;;8.23;;
9224;SDS011;4647;48.072;11.616;2023-09-08T05:25:21;8.90;;;8.03;;
9224;SDS011;4647;48.072;11.616;2023-09-08T05:27:49;9.53;;;8.73;;
9224;SDS011;4647;48.072;11.616;2023-09-08T05:30:18;8.60;;;7.70;;
9224;SDS011;4647;48.072;11.616;2023-09-08T05:32:46;9.63;;;8.73;;
9224;SDS011;4647;48.072;11.616;2023-09-08T05:35:15;11.80;;;8.67;;
9224;SDS011;4647;48.072;11.616;2023-09-08T05:37:43;11.43;;;8.40;;
9224;SDS011;4647;48.072;11.616;2023-09-08T05:40:12;10.50;;;9.50;;
9224;SDS011;4647;48.072;11.616;2023-09-08T05:42:43;11.67;;;9.03;;
9224;SDS011;4647;48.072;11.616;2023-09-08T05:45:11;12.20;;;8.23;;
9224;SDS011;4647;48.072;11.616;2023-09-08T05:47:39;13.03;;;9.70;;
9224;SDS011;4647;48.072;11.616;2023-09-08T05:50:08;20.53;;;9.50;;
9224;SDS011;4647;48.072;11.616;2023-09-08T05:52:37;18.07;;;9.73;;
9224;SDS011;4647;48.072;11.616;2023-09-08T05:55:06;13.53;;;9.53;;
9224;SDS011;4647;48.072;11.616;2023-09-08T05:57:34;16.23;;;9.57;;
9224;SDS011;4647;48.072;11.616;2023-09-08T06:00:07;12.40;;;9.17;;
9224;SDS011;4647;48.072;11.616;2023-09-08T06:02:37;16.83;;;9.77;;
9224;SDS011;4647;48.072;11.616;2023-09-08T06:05:06;15.03;;;9.70;;
9224;SDS011;4647;48.072;11.616;2023-09-08T06:07:35;13.63;;;9.30;;
9224;SDS011;4647;48.072;11.616;2023-09-08T06:10:03;17.13;;;9.20;;
9224;SDS011;4647;48.072;11.616;2023-09-08T06:12:33;15.37;;;10.93;;
9224;SDS011;4647;48.072;11.616;2023-09-08T06:15:02;10.83;;;9.53;;
9224;SDS011;4647;48.072;11.616;2023-09-08T06:17:33;19.53;;;10.10;;
9224;SDS011;4647;48.072;11.616;2023-09-08T06:20:02;11.67;;;9.80;;
9224;SDS011;4647;48.072;11.616;2023-09-08T06:22:31;12.50;;;10.33;;
9224;SDS011;4647;48.072;11.616;2023-09-08T06:24:59;12.97;;;9.23;;
9224;SDS011;4647;48.072;11.616;2023-09-08T06:27:28;15.03;;;8.90;;
9224;SDS011;4647;48.072;11.616;2023-09-08T06:29:56;15.03;;;9.43;;
9224;SDS011;4647;48.072;11.616;2023-09-08T06:32:25;10.43;;;9.37;;
9224;SDS011;4647;48.072;11.616;2023-09-08T06:34:56;11.53;;;9.10;;
9224;SDS011;4647;48.072;11.616;2023-09-08T06:37:22;10.23;;;9.27;;
9224;SDS011;4647;48.072;11.616;2023-09-08T06:39:51;11.60;;;9.07;;
9224;SDS011;4647;48.072;11.616;2023-09-08T06:42:23;11.83;;;8.90;;
9224;SDS011;4647;48.072;11.616;2023-09-08T06:44:52;10.23;;;9.23;;
9224;SDS011;4647;48.072;11.616;2023-09-08T06:47:20;9.43;;;8.50;;
9224;SDS011;4647;48.072;11.616;2023-09-08T06:49:49;11.10;;;10.10;;
9224;SDS011;4647;48.072;11.616;2023-09-08T06:52:20;10.57;;;9.40;;
9224;SDS011;4647;48.072;11.616;2023-09-08T06:54:48;12.07;;;9.37;;
9224;SDS011;4647;48.072;11.616;2023-09-08T06:57:17;11.50;;;9.67;;
9224;SDS011;4647;48.072;11.616;2023-09-08T06:59:47;12.43;;;9.37;;
9224;SDS011;4647;48.072;11.616;2023-09-08T07:02:15;12.57;;;9.70;;
9224;SDS011;4647;48.072;11.616;2023-09-08T07:04:43;16.37;;;10.07;;
9224;SDS011;4647;48.072;11.616;2023-09-08T07:07:12;16.93;;;9.80;;
9224;SDS011;4647;48.072;11.616;2023-09-08T07:09:43;11.77;;;9.60;;
9224;SDS011;4647;48.072;11.616;2023-09-08T07:12:11;12.37;;;9.90;;
9224;SDS011;4647;48.072;11.616;2023-09-08T07:14:40;13.57;;;8.90;;
9224;SDS011;4647;48.072;11.616;2023-09-08T07:17:08;18.70;;;10.10;;
9224;SDS011;4647;48.072;11.616;2023-09-08T07:19:37;18.27;;;10.73;;
9224;SDS011;4647;48.072;11.616;2023-09-08T07:22:05;13.37;;;10.17;;
9224;SDS011;4647;48.072;11.616;2023-09-08T07:24:34;12.57;;;10.50;;
9224;SDS011;4647;48.072;11.616;2023-09-08T07:27:05;14.27;;;10.20;;
9224;SDS011;4647;48.072;11.616;2023-09-08T07:29:33;12.17;;;9.97;;
9224;SDS011;4647;48.072;11.616;2023-09-08T07:32:02;10.80;;;9.70;;
9224;SDS011;4647;48.072;11.616;2023-09-08T07:34:31;12.50;;;10.10;;
9224;SDS011;4647;48.072;11.616;2023-09-08T07:37:00;14.00;;;9.83;;
9224;SDS011;4647;48.072;11.616;2023-09-08T07:39:28;11.83;;;9.90;;
9224;SDS011;4647;48.072;11.616;2023-09-08T07:41:59;13.77;;;10.10;;
9224;SDS011;4647;48.072;11.616;2023-09-08T07:44:30;11.13;;;9.93;;
9224;SDS011;4647;48.072;11.616;2023-09-08T07:46:59;10.23;;;9.30;;
9224;SDS011;4647;48.072;11.616;2023-09-08T07:49:27;10.90;;;9.63;;
9224;SDS011;4647;48.072;11.616;2023-09-08T07:51:56;12.37;;;9.50;;
9224;SDS011;4647;48.072;11.616;2023-09-08T07:54:25;13.53;;;9.27;;
9224;SDS011;4647;48.072;11.616;2023-09-08T07:56:53;10.77;;;9.73;;
9224;SDS011;4647;48.072;11.616;2023-09-08T07:59:22;10.00;;;9.10;;
9224;SDS011;4647;48.072;11.616;2023-09-08T08:01:53;11.63;;;9.70;;
9224;SDS011;4647;48.072;11.616;2023-09-08T08:04:21;10.30;;;9.50;;
9224;SDS011;4647;48.072;11.616;2023-09-08T08:06:49;10.60;;;9.57;;
9224;SDS011;4647;48.072;11.616;2023-09-08T08:09:18;10.13;;;9.10;;
9224;SDS011;4647;48.072;11.616;2023-09-08T08:11:46;11.63;;;10.37;;
9224;SDS011;4647;48.072;11.616;2023-09-08T08:14:15;11.20;;;9.50;;
9224;SDS011;4647;48.072;11.616;2023-09-08T08:16:43;11.63;;;9.13;;
9224;SDS011;4647;48.072;11.616;2023-09-08T08:19:15;9.87;;;8.97;;
9224;SDS011;4647;48.072;11.616;2023-09-08T08:21:43;9.60;;;8.70;;
9224;SDS011;4647;48.072;11.616;2023-09-08T08:24:11;9.77;;;8.67;;
9224;SDS011;4647;48.072;11.616;2023-09-08T08:26:40;9.70;;;8.80;;
9224;SDS011;4647;48.072;11.616;2023-09-08T08:29:08;10.33;;;9.03;;
9224;SDS011;4647;48.072;11.616;2023-09-08T08:31:37;11.37;;;10.37;;
9224;SDS011;4647;48.072;11.616;2023-09-08T08:34:05;10.07;;;9.03;;
9224;SDS011;4647;48.072;11.616;2023-09-08T08:36:37;10.37;;;9.47;;
9224;SDS011;4647;48.072;11.616;2023-09-08T08:39:05;13.50;;;8.97;;
9224;SDS011;4647;48.072;11.616;2023-09-08T08:41:35;10.97;;;9.37;;
9224;SDS011;4647;48.072;11.616;2023-09-08T08:44:06;10.17;;;8.63;;
9224;SDS011;4647;48.072;11.616;2023-09-08T08:46:35;9.70;;;8.67;;
9224;SDS011;4647;48.072;11.616;2023-09-08T08:49:04;10.00;;;8.87;;
9224;SDS011;4647;48.072;11.616;2023-09-08T08:51:37;12.37;;;9.37;;
9224;SDS011;4647;48.072;11.616;2023-09-08T08:54:07;15.57;;;9.67;;
9224;SDS011;4647;48.072;11.616;2023-09-08T08:56:36;13.37;;;8.83;;
9224;SDS011;4647;48.072;11.616;2023-09-08T08:59:05;12.03;;;9.03;;
9224;SDS011;4647;48.072;11.616;2023-09-08T09:01:34;9.47;;;8.47;;
9224;SDS011;4647;48.072;11.616;2023-09-08T09:04:04;12.07;;;9.40;;
9224;SDS011;4647;48.072;11.616;2023-09-08T09:06:33;10.50;;;8.77;;
9224;SDS011;4647;48.072;11.616;2023-09-08T09:09:05;9.87;;;8.87;;
9224;SDS011;4647;48.072;11.616;2023-09-08T09:11:35;10.43;;;9.53;;
9224;SDS011;4647;48.072;11.616;2023-09-08T09:14:04;9.27;;;8.43;;
9224;SDS011;4647;48.072;11.616;2023-09-08T09:16:36;12.53;;;8.33;;
9224;SDS011;4647;48.072;11.616;2023-09-08T09:19:09;9.87;;;8.63;;
9224;SDS011;4647;48.072;11.616;2023-09-08T09:21:44;12.13;;;9.27;;
9224;SDS011;4647;48.072;11.616;2023-09-08T09:24:16;9.37;;;8.43;;
9224;SDS011;4647;48.072;11.616;2023-09-08T09:26:55;9.27;;;7.93;;
9224;SDS011;4647;48.072;11.616;2023-09-08T09:29:24;9.93;;;9.03;;
9224;SDS011;4647;48.072;11.616;2023-09-08T09:31:53;14.63;;;9.17;;
9224;SDS011;4647;48.072;11.616;2023-09-08T09:34:23;13.23;;;9.07;;
9224;SDS011;4647;48.072;11.616;2023-09-08T09:36:54;9.03;;;8.10;;
9224;SDS011;4647;48.072;11.616;2023-09-08T09:39:23;10.27;;;8.50;;
9224;SDS011;4647;48.072;11.616;2023-09-08T09:41:53;11.73;;;8.33;;
9224;SDS011;4647;48.072;11.616;2023-09-08T09:44:22;10.30;;;9.10;;
9224;SDS011;4647;48.072;11.616;2023-09-08T09:46:51;12.00;;;8.83;;
9224;SDS011;4647;48.072;11.616;2023-09-08T09:49:20;10.30;;;9.13;;
9224;SDS011;4647;48.072;11.616;2023-09-08T09:51:54;10.27;;;9.07;;
9224;SDS011;4647;48.072;11.616;2023-09-08T09:54:23;17.37;;;9.10;;
9224;SDS011;4647;48.072;11.616;2023-09-08T09:56:51;11.63;;;8.53;;
9224;SDS011;4647;48.072;11.616;2023-09-08T09:59:20;10.13;;;8.60;;
9224;SDS011;4647;48.072;11.616;2023-09-08T10:01:50;9.87;;;8.90;;
9224;SDS011;4647;48.072;11.616;2023-09-08T10:04:20;9.13;;;8.23;;
9224;SDS011;4647;48.072;11.616;2023-09-08T10:06:48;8.15;;;7.47;;
9224;SDS011;4647;48.072;11.616;2023-09-08T10:09:20;14.23;;;8.50;;
9224;SDS011;4647;48.072;11.616;2023-09-08T10:11:49;8.70;;;7.83;;
9224;SDS011;4647;48.072;11.616;2023-09-08T10:14:18;9.20;;;8.27;;
9224;SDS011;4647;48.072;11.616;2023-09-08T10:16:47;8.63;;;7.73;;
9224;SDS011;4647;48.072;11.616;2023-09-08T10:19:20;10.00;;;7.47;;
9224;SDS011;4647;48.072;11.616;2023-09-08T10:21:50;8.87;;;7.53;;
9224;SDS011;4647;48.072;11.616;2023-09-08T10:24:26;9.77;;;7.83;;
9224;SDS011;4647;48.072;11.616;2023-09-08T10:26:58;11.70;;;7.80;;
9224;SDS011;4647;48.072;11.616;2023-09-08T10:29:31;8.80;;;8.00;;
9224;SDS011;4647;48.072;11.616;2023-09-08T10:32:00;8.70;;;7.80;;
9224;SDS011;4647;48.072;11.616;2023-09-08T10:34:30;10.73;;;7.73;;
9224;SDS011;4647;48.072;11.616;2023-09-08T10:37:00;7.93;;;7.13;;
9224;SDS011;4647;48.072;11.616;2023-09-08T10:39:33;8.53;;;7.57;;
9224;SDS011;4647;48.072;11.616;2023-09-08T10:45:00;8.90;;;8.03;;
9224;SDS011;4647;48.072;11.616;2023-09-08T10:47:39;8.20;;;7.53;;
9224;SDS011;4647;48.072;11.616;2023-09-08T10:50:25;8.50;;;7.70;;
9224;SDS011;4647;48.072;11.616;2023-09-08T10:53:04;9.57;;;8.10;;
9224;SDS011;4647;48.072;11.616;2023-09-08T10:55:45;8.37;;;7.67;;
9224;SDS011;4647;48.072;11.616;2023-09-08T10:58:18;8.87;;;7.73;;
9224;SDS011;4647;48.072;11.616;2023-09-08T11:00:58;8.37;;;7.57;;
9224;SDS011;4647;48.072;11.616;2023-09-08T11:03:42;8.03;;;7.27;;
9224;SDS011;4647;48.072;11.616;2023-09-08T11:06:15;8.60;;;7.67;;
9224;SDS011;4647;48.072;11.616;2023-09-08T11:08:47;8.33;;;7.60;;
9224;SDS011;4647;48.072;11.616;2023-09-08T11:11:20;8.30;;;7.60;;
9224;SDS011;4647;48.072;11.616;2023-09-08T11:13:49;9.67;;;8.23;;
9224;SDS011;4647;48.072;11.616;2023-09-08T11:16:19;8.20;;;7.47;;
9224;SDS011;4647;48.072;11.616;2023-09-08T11:18:54;8.67;;;7.97;;
9224;SDS011;4647;48.072;11.616;2023-09-08T11:21:23;9.90;;;7.60;;
9224;SDS011;4647;48.072;11.616;2023-09-08T11:23:52;8.20;;;7.40;;
9224;SDS011;4647;48.072;11.616;2023-09-08T11:26:23;10.80;;;8.73;;
9224;SDS011;4647;48.072;11.616;2023-09-08T11:28:52;8.30;;;7.53;;
9224;SDS011;4647;48.072;11.616;2023-09-08T11:31:23;8.27;;;7.50;;
9224;SDS011;4647;48.072;11.616;2023-09-08T11:33:54;10.20;;;8.03;;
9224;SDS011;4647;48.072;11.616;2023-09-08T11:36:24;8.60;;;7.43;;
9224;SDS011;4647;48.072;11.616;2023-09-08T11:38:53;8.33;;;7.53;;
9224;SDS011;4647;48.072;11.616;2023-09-08T11:41:24;9.23;;;7.27;;
9224;SDS011;4647;48.072;11.616;2023-09-08T11:43:53;9.37;;;6.90;;
9224;SDS011;4647;48.072;11.616;2023-09-08T11:46:22;8.20;;;7.33;;
9224;SDS011;4647;48.072;11.616;2023-09-08T11:48:51;7.67;;;6.97;;
9224;SDS011;4647;48.072;11.616;2023-09-08T11:51:22;9.80;;;7.33;;
9224;SDS011;4647;48.072;11.616;2023-09-08T11:53:50;10.17;;;7.53;;
9224;SDS011;4647;48.072;11.616;2023-09-08T11:56:20;10.13;;;7.90;;
9224;SDS011;4647;48.072;11.616;2023-09-08T11:58:51;9.97;;;7.57;;
9224;SDS011;4647;48.072;11.616;2023-09-08T12:01:21;14.00;;;7.27;;
9224;SDS011;4647;48.072;11.616;2023-09-08T12:03:53;10.80;;;7.07;;
9224;SDS011;4647;48.072;11.616;2023-09-08T12:06:23;9.97;;;7.97;;
9224;SDS011;4647;48.072;11.616;2023-09-08T12:08:52;11.87;;;7.83;;
9224;SDS011;4647;48.072;11.616;2023-09-08T12:11:21;9.47;;;7.47;;
9224;SDS011;4647;48.072;11.616;2023-09-08T12:13:52;8.33;;;7.53;;
9224;SDS011;4647;48.072;11.616;2023-09-08T12:16:28;11.83;;;8.97;;
9224;SDS011;4647;48.072;11.616;2023-09-08T12:18:56;10.10;;;8.67;;
9224;SDS011;4647;48.072;11.616;2023-09-08T12:21:25;12.13;;;9.13;;
9224;SDS011;4647;48.072;11.616;2023-09-08T12:23:53;15.30;;;8.63;;
9224;SDS011;4647;48.072;11.616;2023-09-08T12:26:20;12.07;;;8.60;;
9224;SDS011;4647;48.072;11.616;2023-09-08T12:28:48;12.03;;;8.63;;
9224;SDS011;4647;48.072;11.616;2023-09-08T12:31:19;16.87;;;9.23;;
9224;SDS011;4647;48.072;11.616;2023-09-08T12:33:49;13.47;;;8.83;;
9224;SDS011;4647;48.072;11.616;2023-09-08T12:36:18;9.00;;;8.20;;
9224;SDS011;4647;48.072;11.616;2023-09-08T12:38:47;9.30;;;8.30;;
9224;SDS011;4647;48.072;11.616;2023-09-08T12:41:17;11.13;;;9.00;;
9224;SDS011;4647;48.072;11.616;2023-09-08T12:43:45;9.97;;;8.90;;
9224;SDS011;4647;48.072;11.616;2023-09-08T12:46:19;10.03;;;7.53;;
9224;SDS011;4647;48.072;11.616;2023-09-08T12:48:47;11.40;;;8.07;;
9224;SDS011;4647;48.072;11.616;2023-09-08T12:51:16;14.73;;;7.77;;
9224;SDS011;4647;48.072;11.616;2023-09-08T12:53:44;10.77;;;8.23;;
9224;SDS011;4647;48.072;11.616;2023-09-08T12:56:12;11.53;;;8.10;;
9224;SDS011;4647;48.072;11.616;2023-09-08T12:58:41;12.43;;;7.97;;
9224;SDS011;4647;48.072;11.616;2023-09-08T13:01:11;10.83;;;8.40;;
9224;SDS011;4647;48.072;11.616;2023-09-08T13:03:42;12.60;;;8.57;;
9224;SDS011;4647;48.072;11.616;2023-09-08T13:06:10;10.53;;;8.17;;
9224;SDS011;4647;48.072;11.616;2023-09-08T13:08:39;7.77;;;7.03;;
9224;SDS011;4647;48.072;11.616;2023-09-08T13:11:07;10.53;;;8.73;;
9224;SDS011;4647;48.072;11.616;2023-09-08T13:13:36;11.93;;;8.67;;
9224;SDS011;4647;48.072;11.616;2023-09-08T13:16:04;10.80;;;8.20;;
9224;SDS011;4647;48.072;11.616;2023-09-08T13:18:32;12.17;;;9.10;;
9224;SDS011;4647;48.072;11.616;2023-09-08T13:21:06;14.27;;;9.20;;
9224;SDS011;4647;48.072;11.616;2023-09-08T13:23:35;11.50;;;8.40;;
9224;SDS011;4647;48.072;11.616;2023-09-08T13:26:03;11.07;;;8.53;;
9224;SDS011;4647;48.072;11.616;2023-09-08T13:28:32;14.63;;;9.30;;
9224;SDS011;4647;48.072;11.616;2023-09-08T13:31:00;12.50;;;7.97;;
9224;SDS011;4647;48.072;11.616;2023-09-08T13:33:29;9.47;;;8.03;;
9224;SDS011;4647;48.072;11.616;2023-09-08T13:35:57;12.47;;;8.10;;
9224;SDS011;4647;48.072;11.616;2023-09-08T13:38:28;10.77;;;8.77;;
9224;SDS011;4647;48.072;11.616;2023-09-08T13:40:57;8.70;;;7.90;;
9224;SDS011;4647;48.072;11.616;2023-09-08T13:43:25;15.10;;;8.33;;
9224;SDS011;4647;48.072;11.616;2023-09-08T13:45:54;13.20;;;8.20;;
9224;SDS011;4647;48.072;11.616;2023-09-08T13:48:22;10.37;;;8.17;;
9224;SDS011;4647;48.072;11.616;2023-09-08T13:50:51;9.17;;;8.20;;
9224;SDS011;4647;48.072;11.616;2023-09-08T13:53:21;13.97;;;8.20;;
9224;SDS011;4647;48.072;11.616;2023-09-08T13:55:52;11.33;;;8.43;;
9224;SDS011;4647;48.072;11.616;2023-09-08T13:58:20;9.87;;;8.07;;
9224;SDS011;4647;48.072;11.616;2023-09-08T14:00:48;9.13;;;7.63;;
9224;SDS011;4647;48.072;11.616;2023-09-08T14:03:17;13.60;;;8.63;;
9224;SDS011;4647;48.072;11.616;2023-09-08T14:05:45;10.73;;;7.47;;
9224;SDS011;4647;48.072;11.616;2023-09-08T14:08:14;9.67;;;7.50;;
9224;SDS011;4647;48.072;11.616;2023-09-08T14:10:42;8.87;;;7.70;;
9224;SDS011;4647;48.072;11.616;2023-09-08T14:13:13;12.90;;;7.87;;
9224;SDS011;4647;48.072;11.616;2023-09-08T14:15:42;11.03;;;7.77;;
9224;SDS011;4647;48.072;11.616;2023-09-08T14:18:10;15.73;;;8.10;;
9224;SDS011;4647;48.072;11.616;2023-09-08T14:20:39;9.80;;;8.07;;
9224;SDS011;4647;48.072;11.616;2023-09-08T14:23:08;10.33;;;7.97;;
9224;SDS011;4647;48.072;11.616;2023-09-08T14:25:36;10.53;;;7.87;;
9224;SDS011;4647;48.072;11.616;2023-09-08T14:28:05;13.77;;;9.00;;
9224;SDS011;4647;48.072;11.616;2023-09-08T14:30:36;8.50;;;7.30;;
9224;SDS011;4647;48.072;11.616;2023-09-08T14:33:05;12.83;;;7.77;;
9224;SDS011;4647;48.072;11.616;2023-09-08T14:35:34;11.07;;;7.57;;
9224;SDS011;4647;48.072;11.616;2023-09-08T14:38:03;13.83;;;8.17;;
9224;SDS011;4647;48.072;11.616;2023-09-08T14:40:33;8.30;;;7.50;;
9224;SDS011;4647;48.072;11.616;2023-09-08T14:43:01;11.90;;;7.17;;
9224;SDS011;4647;48.072;11.616;2023-09-08T14:45:30;8.20;;;7.33;;
9224;SDS011;4647;48.072;11.616;2023-09-08T14:48:01;9.27;;;7.40;;
9224;SDS011;4647;48.072;11.616;2023-09-08T14:50:30;7.37;;;6.67;;
9224;SDS011;4647;48.072;11.616;2023-09-08T14:52:59;10.87;;;7.30;;
9224;SDS011;4647;48.072;11.616;2023-09-08T14:55:27;9.03;;;7.50;;
9224;SDS011;4647;48.072;11.616;2023-09-08T14:57:56;8.47;;;7.17;;
9224;SDS011;4647;48.072;11.616;2023-09-08T15:00:24;10.30;;;7.67;;
9224;SDS011;4647;48.072;11.616;2023-09-08T15:02:53;8.20;;;7.27;;
9224;SDS011;4647;48.072;11.616;2023-09-08T15:05:24;10.73;;;7.30;;
9224;SDS011;4647;48.072;11.616;2023-09-08T15:07:53;14.33;;;7.40;;
9224;SDS011;4647;48.072;11.616;2023-09-08T15:10:21;8.03;;;7.20;;